createdAt,value
2023-02-01T00:01:18.269Z,78.33
2023-02-01T00:03:50.850Z,78.30
2023-02-01T00:06:23.230Z,78.26
2023-02-01T00:08:57.849Z,78.12
2023-02-01T00:11:30.247Z,78.43
2023-02-01T00:14:02.622Z,78.19
2023-02-01T00:16:35.076Z,78.41
2023-02-01T00:19:10.093Z,78.18
2023-02-01T00:21:43.004Z,78.44
2023-02-01T00:24:15.914Z,78.34
2023-02-01T00:26:49.357Z,78.49
2023-02-01T00:29:23.723Z,78.49
2023-02-01T00:31:56.345Z,78.25
2023-02-01T00:34:28.857Z,78.30
2023-02-01T00:37:01.387Z,78.35
2023-02-01T00:39:34.041Z,78.55
2023-02-01T00:42:06.973Z,78.22
2023-02-01T00:44:39.606Z,78.59
2023-02-01T00:47:13.457Z,78.41
2023-02-01T00:49:46.015Z,78.43
2023-02-01T00:52:18.401Z,78.44
2023-02-01T00:54:50.858Z,78.50
2023-02-01T00:57:23.322Z,78.55
2023-02-01T00:59:55.800Z,78.79
2023-02-01T01:02:29.739Z,78.77
2023-02-01T01:05:02.359Z,78.70
2023-02-01T01:07:34.840Z,78.64
2023-02-01T01:10:08.337Z,78.44
2023-02-01T01:12:41.895Z,78.79
2023-02-01T01:15:16.215Z,78.63
2023-02-01T01:17:48.623Z,78.72
2023-02-01T01:20:22.931Z,78.62
2023-02-01T01:22:55.573Z,78.62
2023-02-01T01:25:28.099Z,78.51
2023-02-01T01:28:00.519Z,78.60
2023-02-01T01:30:32.925Z,78.59
2023-02-01T01:33:05.347Z,78.71
2023-02-01T01:35:38.307Z,78.61
2023-02-01T01:38:11.689Z,78.58
2023-02-01T01:40:48.648Z,78.68
2023-02-01T01:43:23.738Z,78.70
2023-02-01T01:46:00.097Z,79.05
2023-02-01T01:48:33.764Z,78.80
2023-02-01T01:51:11.272Z,78.50
2023-02-01T01:53:50.413Z,78.51
2023-02-01T01:56:23.651Z,78.64
2023-02-01T01:58:56.848Z,78.63
2023-02-01T02:01:29.666Z,78.66
2023-02-01T02:04:03.280Z,78.75
2023-02-01T02:06:42.868Z,78.78
2023-02-01T02:09:16.142Z,78.57
2023-02-01T02:11:48.649Z,78.60
2023-02-01T02:14:23.202Z,78.72
2023-02-01T02:17:21.865Z,78.74
2023-02-01T02:20:25.154Z,78.69
2023-02-01T02:23:27.883Z,78.66
2023-02-01T02:26:28.950Z,78.52
2023-02-01T02:29:34.743Z,78.82
2023-02-01T02:32:33.184Z,78.75
2023-02-01T02:35:12.649Z,78.57
2023-02-01T02:37:51.431Z,78.69
2023-02-01T02:40:33.491Z,78.75
2023-02-01T02:43:30.547Z,78.62
2023-02-01T02:46:25.094Z,78.85
2023-02-01T02:49:03.524Z,78.68
2023-02-01T02:52:01.187Z,78.64
2023-02-01T02:54:50.028Z,78.39
2023-02-01T02:57:46.125Z,78.82
2023-02-01T03:00:42.535Z,78.52
2023-02-01T03:03:32.884Z,78.38
2023-02-01T03:06:06.845Z,78.56
2023-02-01T03:08:39.549Z,78.43
2023-02-01T03:11:14.411Z,78.42
2023-02-01T03:13:52.099Z,78.64
2023-02-01T03:16:30.577Z,78.33
2023-02-01T03:19:09.587Z,78.51
2023-02-01T03:21:45.992Z,78.51
2023-02-01T03:24:22.364Z,78.44
2023-02-01T03:26:59.591Z,78.56
2023-02-01T03:29:38.990Z,78.67
2023-02-01T03:32:11.744Z,78.37
2023-02-01T03:34:44.825Z,78.30
2023-02-01T03:37:24.770Z,78.30
2023-02-01T03:40:02.828Z,78.44
2023-02-01T03:42:41.170Z,78.49
2023-02-01T03:45:18.704Z,78.60
2023-02-01T03:47:55.654Z,78.30
2023-02-01T03:50:29.990Z,78.32
2023-02-01T03:53:07.417Z,78.59
2023-02-01T03:55:41.377Z,78.45
2023-02-01T03:58:17.790Z,78.32
2023-02-01T04:00:56.259Z,78.55
2023-02-01T04:03:30.532Z,78.09
2023-02-01T04:06:03.154Z,78.67
2023-02-01T04:08:35.770Z,78.48
2023-02-01T04:11:08.347Z,78.47
2023-02-01T04:13:40.831Z,78.40
2023-02-01T04:16:13.849Z,78.42
2023-02-01T04:18:46.252Z,78.50
2023-02-01T04:21:19.128Z,78.51
2023-02-01T04:23:51.755Z,78.37
2023-02-01T04:26:24.686Z,78.43
2023-02-01T04:28:57.146Z,78.29
2023-02-01T04:31:29.704Z,78.06
2023-02-01T04:34:02.175Z,78.24
2023-02-01T04:36:34.616Z,78.10
2023-02-01T04:39:07.121Z,78.40
2023-02-01T04:41:39.619Z,78.15
2023-02-01T04:44:15.522Z,78.02
2023-02-01T04:46:48.898Z,78.12
2023-02-01T04:49:22.357Z,77.92
2023-02-01T04:51:54.792Z,78.07
2023-02-01T04:54:27.623Z,77.75
2023-02-01T04:57:00.100Z,78.13
2023-02-01T04:59:32.497Z,78.05
2023-02-01T05:02:04.952Z,77.88
2023-02-01T05:04:37.414Z,77.80
2023-02-01T05:07:09.939Z,77.67
2023-02-01T05:09:42.380Z,77.65
2023-02-01T05:12:32.701Z,78.03
2023-02-01T05:15:05.528Z,77.81
2023-02-01T05:17:38.043Z,77.75
2023-02-01T05:20:13.149Z,77.68
2023-02-01T05:22:44.699Z,77.75
2023-02-01T05:25:17.409Z,77.56
2023-02-01T05:27:49.853Z,77.60
2023-02-01T05:30:23.011Z,77.61
2023-02-01T05:32:56.088Z,77.68
2023-02-01T05:35:28.402Z,77.69
2023-02-01T05:38:00.830Z,77.69
2023-02-01T05:40:33.304Z,77.40
2023-02-01T05:43:05.692Z,77.59
2023-02-01T05:45:38.148Z,77.52
2023-02-01T05:48:10.501Z,77.59
2023-02-01T05:50:42.891Z,77.80
2023-02-01T05:53:15.700Z,77.40
2023-02-01T05:55:48.131Z,77.56
2023-02-01T05:58:20.590Z,77.66
2023-02-01T06:00:52.996Z,77.63
2023-02-01T06:03:25.739Z,77.58
2023-02-01T06:05:58.205Z,77.60
2023-02-01T06:08:30.661Z,77.52
2023-02-01T06:11:05.071Z,77.59
2023-02-01T06:13:39.728Z,77.43
2023-02-01T06:16:12.364Z,77.67
2023-02-01T06:18:45.268Z,77.77
2023-02-01T06:21:24.805Z,77.41
2023-02-01T06:23:58.836Z,77.56
2023-02-01T06:26:31.463Z,77.52
2023-02-01T06:29:08.538Z,77.48
2023-02-01T06:31:41.548Z,77.58
2023-02-01T06:34:13.956Z,77.57
2023-02-01T06:36:46.304Z,77.46
2023-02-01T06:39:18.831Z,77.74
2023-02-01T06:41:51.928Z,77.50
2023-02-01T06:44:24.664Z,77.52
2023-02-01T06:46:57.288Z,77.43
2023-02-01T06:49:29.823Z,77.42
2023-02-01T06:52:02.314Z,77.71
2023-02-01T06:54:35.357Z,77.66
2023-02-01T06:57:08.354Z,77.28
2023-02-01T06:59:41.067Z,77.51
2023-02-01T07:02:14.901Z,77.73
2023-02-01T07:04:47.362Z,77.47
2023-02-01T07:07:20.949Z,77.25
2023-02-01T07:09:53.618Z,77.26
2023-02-01T07:12:26.054Z,77.47
2023-02-01T07:14:58.580Z,77.39
2023-02-01T07:17:31.070Z,77.78
2023-02-01T07:20:03.744Z,77.11
2023-02-01T07:22:36.183Z,77.27
2023-02-01T07:25:11.460Z,77.31
2023-02-01T07:27:43.835Z,77.34
2023-02-01T07:30:16.925Z,77.49
2023-02-01T07:32:49.493Z,77.42
2023-02-01T07:35:22.081Z,77.35
2023-02-01T07:37:54.596Z,77.30
2023-02-01T07:40:29.806Z,77.46
2023-02-01T07:43:02.433Z,77.03
2023-02-01T07:45:36.921Z,77.23
2023-02-01T07:48:09.408Z,77.28
2023-02-01T07:50:41.808Z,77.42
2023-02-01T07:53:14.607Z,77.34
2023-02-01T07:55:49.043Z,77.20
2023-02-01T07:58:21.497Z,77.40
2023-02-01T08:01:12.070Z,77.18
2023-02-01T08:03:44.500Z,77.24
2023-02-01T08:06:16.991Z,77.03
2023-02-01T08:08:49.805Z,77.25
2023-02-01T08:11:23.011Z,77.11
2023-02-01T08:13:55.690Z,77.18
2023-02-01T08:16:28.542Z,77.14
2023-02-01T08:19:01.142Z,76.95
2023-02-01T08:21:37.831Z,77.17
2023-02-01T08:24:13.161Z,77.16
2023-02-01T08:26:45.704Z,77.13
2023-02-01T08:29:18.621Z,77.17
2023-02-01T08:31:51.920Z,77.21
2023-02-01T08:34:24.724Z,77.06
2023-02-01T08:36:59.829Z,77.10
2023-02-01T08:39:32.301Z,77.24
2023-02-01T08:42:22.640Z,77.05
2023-02-01T08:44:54.991Z,76.99
2023-02-01T08:47:27.429Z,77.02
2023-02-01T08:49:59.857Z,77.05
2023-02-01T08:52:32.313Z,76.90
2023-02-01T08:55:04.816Z,76.92
2023-02-01T08:57:37.920Z,77.05
2023-02-01T09:00:13.935Z,76.86
2023-02-01T09:02:46.637Z,76.82
2023-02-01T09:05:23.302Z,76.71
2023-02-01T09:07:55.821Z,76.98
2023-02-01T09:10:35.162Z,76.57
2023-02-01T09:13:08.222Z,77.02
2023-02-01T09:15:40.693Z,76.90
2023-02-01T09:18:13.173Z,76.89
2023-02-01T09:20:45.587Z,77.03
2023-02-01T09:23:18.111Z,76.83
2023-02-01T09:25:51.473Z,76.56
2023-02-01T09:28:23.914Z,76.82
2023-02-01T09:31:00.589Z,76.53
2023-02-01T09:33:33.599Z,76.51
2023-02-01T09:36:09.191Z,77.01
2023-02-01T09:38:44.576Z,76.79
2023-02-01T09:41:39.497Z,76.81
2023-02-01T09:44:30.060Z,76.63
2023-02-01T09:47:15.564Z,76.68
2023-02-01T09:49:55.639Z,76.45
2023-02-01T09:52:33.620Z,76.62
2023-02-01T09:55:13.975Z,76.51
2023-02-01T09:57:53.286Z,76.68
2023-02-01T10:00:28.324Z,76.53
2023-02-01T10:03:00.980Z,76.63
2023-02-01T10:05:49.894Z,76.75
2023-02-01T10:08:33.225Z,76.21
2023-02-01T10:11:17.313Z,76.72
2023-02-01T10:14:01.562Z,76.53
2023-02-01T10:16:45.708Z,76.21
2023-02-01T10:19:30.452Z,76.40
2023-02-01T10:22:06.970Z,76.44
2023-02-01T10:24:50.372Z,76.13
2023-02-01T10:27:25.429Z,76.49
2023-02-01T10:30:01.134Z,76.23
2023-02-01T10:32:36.391Z,76.30
2023-02-01T10:35:17.428Z,76.17
2023-02-01T10:37:51.713Z,76.33
2023-02-01T10:40:26.996Z,76.12
2023-02-01T10:43:02.900Z,76.20
2023-02-01T10:45:36.843Z,76.04
2023-02-01T10:48:11.773Z,75.92
2023-02-01T10:50:51.676Z,76.06
2023-02-01T10:53:27.997Z,76.08
2023-02-01T10:56:07.628Z,75.92
2023-02-01T10:58:46.818Z,76.24
2023-02-01T11:01:24.498Z,76.16
2023-02-01T11:03:58.846Z,76.15
2023-02-01T11:06:35.039Z,76.00
2023-02-01T11:09:18.916Z,76.00
2023-02-01T11:12:00.537Z,75.86
2023-02-01T11:14:40.856Z,75.95
2023-02-01T11:17:29.406Z,75.97
2023-02-01T11:20:04.009Z,76.09
2023-02-01T11:22:36.623Z,76.13
2023-02-01T11:25:17.721Z,75.80
2023-02-01T11:27:55.230Z,75.74
2023-02-01T11:30:36.661Z,75.82
2023-02-01T11:33:14.709Z,75.98
2023-02-01T11:35:49.109Z,75.94
2023-02-01T11:38:33.691Z,75.81
2023-02-01T11:41:22.584Z,75.66
2023-02-01T11:43:57.961Z,75.55
2023-02-01T11:46:34.065Z,75.62
2023-02-01T11:49:22.454Z,75.57
2023-02-01T11:52:16.491Z,75.65
2023-02-01T11:55:07.421Z,75.59
2023-02-01T11:57:50.962Z,75.66
2023-02-01T12:00:42.295Z,75.78
2023-02-01T12:03:41.725Z,75.68
2023-02-01T12:06:21.429Z,75.56
2023-02-01T12:09:09.355Z,75.47
2023-02-01T12:11:56.512Z,75.58
2023-02-01T12:15:04.849Z,75.54
2023-02-01T12:18:07.921Z,75.60
2023-02-01T12:20:59.371Z,75.45
2023-02-01T12:23:53.055Z,75.53
2023-02-01T12:26:56.618Z,75.45
2023-02-01T12:29:59.384Z,75.48
2023-02-01T12:32:46.143Z,75.50
2023-02-01T12:35:32.473Z,75.54
2023-02-01T12:38:29.617Z,75.48
2023-02-01T12:41:14.961Z,75.28
2023-02-01T12:43:55.731Z,75.36
2023-02-01T12:46:34.691Z,75.33
2023-02-01T12:49:16.100Z,75.23
2023-02-01T12:51:52.306Z,75.14
2023-02-01T12:54:30.487Z,75.07
2023-02-01T12:57:06.601Z,75.14
2023-02-01T12:59:42.465Z,75.36
2023-02-01T13:02:23.807Z,75.07
2023-02-01T13:05:04.403Z,75.19
2023-02-01T13:07:41.830Z,75.26
2023-02-01T13:10:23.445Z,75.08
2023-02-01T13:13:01.915Z,75.08
2023-02-01T13:15:40.692Z,74.96
2023-02-01T13:18:20.662Z,74.95
2023-02-01T13:21:00.847Z,75.08
2023-02-01T13:23:36.832Z,74.90
2023-02-01T13:26:09.973Z,75.10
2023-02-01T13:28:46.618Z,75.27
2023-02-01T13:31:34.597Z,74.95
2023-02-01T13:34:46.217Z,74.83
2023-02-01T13:37:31.004Z,75.06
2023-02-01T13:40:15.471Z,75.16
2023-02-01T13:42:53.136Z,75.40
2023-02-01T13:45:29.513Z,75.01
2023-02-01T13:48:05.597Z,75.05
2023-02-01T13:50:42.039Z,74.86
2023-02-01T13:53:25.048Z,75.01
2023-02-01T13:56:03.020Z,74.60
2023-02-01T13:58:38.822Z,74.77
2023-02-01T14:01:38.157Z,74.98
2023-02-01T14:04:50.230Z,74.81
2023-02-01T14:07:25.399Z,75.05
2023-02-01T14:09:58.065Z,74.91
2023-02-01T14:12:49.191Z,75.17
2023-02-01T14:15:27.120Z,74.83
2023-02-01T14:17:59.832Z,75.02
2023-02-01T14:20:58.681Z,74.91
2023-02-01T14:23:40.824Z,74.92
2023-02-01T14:26:20.388Z,75.05
2023-02-01T14:29:20.058Z,74.99
2023-02-01T14:32:03.756Z,75.02
2023-02-01T14:34:44.394Z,74.85
2023-02-01T14:37:30.100Z,74.95
2023-02-01T14:40:05.541Z,75.23
2023-02-01T14:42:45.813Z,75.03
2023-02-01T14:45:53.067Z,75.36
2023-02-01T14:48:57.846Z,75.16
2023-02-01T14:51:32.483Z,75.27
2023-02-01T14:54:05.368Z,74.98
2023-02-01T14:56:38.154Z,75.04
2023-02-01T14:59:16.986Z,75.07
2023-02-01T15:01:56.168Z,75.22
2023-02-01T15:04:29.928Z,75.15
2023-02-01T15:07:10.641Z,75.33
2023-02-01T15:09:48.935Z,75.38
2023-02-01T15:12:28.065Z,75.17
2023-02-01T15:15:18.213Z,75.34
2023-02-01T15:17:59.804Z,75.26
2023-02-01T15:20:34.139Z,75.62
2023-02-01T15:23:08.811Z,75.17
2023-02-01T15:25:42.449Z,75.16
2023-02-01T15:28:17.729Z,75.57
2023-02-01T15:31:00.014Z,75.52
2023-02-01T15:33:33.576Z,75.43
2023-02-01T15:36:14.285Z,75.31
2023-02-01T15:38:47.486Z,75.26
2023-02-01T15:41:23.042Z,75.25
2023-02-01T15:44:21.160Z,75.47
2023-02-01T15:46:54.117Z,75.37
2023-02-01T15:49:31.042Z,75.21
2023-02-01T15:52:05.543Z,75.36
2023-02-01T15:54:50.137Z,75.55
2023-02-01T15:57:31.564Z,75.26
2023-02-01T16:00:08.205Z,75.12
2023-02-01T16:02:55.886Z,75.38
2023-02-01T16:05:36.709Z,75.36
2023-02-01T16:08:15.079Z,75.39
2023-02-01T16:10:49.948Z,75.17
2023-02-01T16:13:23.753Z,75.39
2023-02-01T16:15:56.158Z,75.30
2023-02-01T16:18:28.613Z,75.38
2023-02-01T16:21:01.011Z,75.43
2023-02-01T16:23:33.454Z,75.50
2023-02-01T16:26:07.013Z,75.38
2023-02-01T16:28:39.861Z,75.48
2023-02-01T16:31:20.526Z,75.65
2023-02-01T16:33:54.161Z,75.48
2023-02-01T16:36:28.202Z,75.41
2023-02-01T16:39:00.847Z,75.51
2023-02-01T16:41:33.341Z,75.42
2023-02-01T16:44:06.219Z,75.50
2023-02-01T16:46:41.771Z,75.62
2023-02-01T16:49:22.086Z,75.29
2023-02-01T16:52:00.219Z,75.63
2023-02-01T16:54:32.751Z,75.38
2023-02-01T16:57:05.208Z,75.43
2023-02-01T16:59:37.921Z,75.60
2023-02-01T17:02:15.302Z,75.35
2023-02-01T17:04:49.064Z,75.47
2023-02-01T17:07:22.619Z,75.40
2023-02-01T17:09:55.603Z,75.29
2023-02-01T17:12:30.720Z,75.40
2023-02-01T17:15:02.025Z,75.55
2023-02-01T17:17:39.640Z,75.58
2023-02-01T17:20:22.820Z,75.35
2023-02-01T17:22:55.611Z,75.42
2023-02-01T17:25:29.920Z,75.36
2023-02-01T17:28:02.386Z,75.58
2023-02-01T17:30:35.022Z,75.58
2023-02-01T17:33:21.724Z,75.43
2023-02-01T17:35:57.031Z,75.29
2023-02-01T17:38:30.159Z,75.21
2023-02-01T17:41:02.635Z,75.46
2023-02-01T17:43:35.884Z,75.38
2023-02-01T17:46:13.464Z,75.20
2023-02-01T17:48:46.005Z,75.24
2023-02-01T17:51:21.251Z,75.62
2023-02-01T17:53:53.908Z,75.13
2023-02-01T17:56:27.169Z,75.32
2023-02-01T17:59:00.213Z,75.51
2023-02-01T18:01:32.889Z,75.49
2023-02-01T18:04:05.762Z,75.33
2023-02-01T18:06:38.755Z,75.36
2023-02-01T18:09:11.156Z,75.34
2023-02-01T18:11:43.573Z,75.30
2023-02-01T18:14:16.064Z,75.38
2023-02-01T18:16:48.456Z,75.51
2023-02-01T18:19:21.066Z,75.21
2023-02-01T18:21:54.239Z,75.44
2023-02-01T18:24:28.062Z,75.20
2023-02-01T18:27:00.826Z,75.12
2023-02-01T18:29:33.201Z,75.23
2023-02-01T18:32:05.957Z,75.31
2023-02-01T18:34:38.533Z,75.05
2023-02-01T18:37:10.987Z,75.16
2023-02-01T18:39:43.490Z,75.12
2023-02-01T18:42:16.121Z,75.16
2023-02-01T18:44:48.500Z,75.34
2023-02-01T18:47:20.906Z,75.22
2023-02-01T18:49:53.961Z,75.07
2023-02-01T18:52:26.826Z,75.04
2023-02-01T18:55:00.353Z,75.42
2023-02-01T18:57:33.555Z,75.06
2023-02-01T19:00:08.965Z,75.33
2023-02-01T19:02:41.958Z,75.32
2023-02-01T19:05:15.465Z,75.24
2023-02-01T19:07:48.830Z,75.00
2023-02-01T19:10:23.406Z,75.20
2023-02-01T19:12:58.008Z,75.31
2023-02-01T19:15:30.759Z,75.12
2023-02-01T19:18:03.312Z,75.03
2023-02-01T19:20:36.198Z,74.81
2023-02-01T19:23:08.570Z,74.96
2023-02-01T19:25:44.041Z,75.08
2023-02-01T19:28:17.064Z,74.87
2023-02-01T19:30:49.727Z,75.01
2023-02-01T19:33:22.518Z,74.96
2023-02-01T19:36:00.789Z,75.17
2023-02-01T19:38:33.464Z,75.31
2023-02-01T19:41:06.512Z,75.17
2023-02-01T19:43:39.851Z,74.98
2023-02-01T19:46:12.425Z,75.13
2023-02-01T19:48:44.823Z,75.26
2023-02-01T19:51:17.614Z,75.16
2023-02-01T19:53:50.210Z,75.01
2023-02-01T19:56:22.704Z,75.07
2023-02-01T19:58:55.830Z,74.82
2023-02-01T20:01:27.528Z,75.19
2023-02-01T20:04:02.061Z,75.13
2023-02-01T20:06:39.012Z,74.91
2023-02-01T20:09:11.437Z,74.63
2023-02-01T20:11:44.101Z,75.01
2023-02-01T20:14:17.187Z,74.88
2023-02-01T20:16:49.944Z,75.10
2023-02-01T20:19:22.446Z,74.78
2023-02-01T20:21:54.887Z,75.01
2023-02-01T20:24:27.427Z,75.04
2023-02-01T20:27:00.823Z,74.83
2023-02-01T20:29:33.550Z,74.95
2023-02-01T20:32:06.092Z,75.05
2023-02-01T20:34:38.581Z,74.81
2023-02-01T20:37:11.066Z,75.18
2023-02-01T20:39:43.761Z,75.05
2023-02-01T20:42:16.383Z,75.19
2023-02-01T20:44:48.813Z,75.24
2023-02-01T20:47:21.252Z,75.14
2023-02-01T20:49:53.797Z,75.16
2023-02-01T20:52:26.185Z,75.34
2023-02-01T20:54:58.695Z,75.37
2023-02-01T20:57:31.332Z,75.29
2023-02-01T21:00:04.573Z,75.05
2023-02-01T21:02:37.156Z,74.88
2023-02-01T21:05:11.425Z,75.17
2023-02-01T21:07:44.542Z,75.12
2023-02-01T21:10:16.805Z,75.13
2023-02-01T21:12:55.648Z,75.27
2023-02-01T21:15:37.982Z,75.19
2023-02-01T21:18:11.830Z,75.31
2023-02-01T21:20:46.885Z,75.18
2023-02-01T21:23:18.277Z,75.39
2023-02-01T21:25:50.965Z,75.20
2023-02-01T21:28:23.427Z,75.62
2023-02-01T21:30:56.376Z,75.20
2023-02-01T21:33:28.804Z,75.25
2023-02-01T21:36:01.337Z,75.41
2023-02-01T21:38:34.091Z,75.24
2023-02-01T21:41:24.335Z,75.09
2023-02-01T21:43:56.731Z,75.22
2023-02-01T21:46:29.314Z,75.44
2023-02-01T21:49:05.205Z,75.20
2023-02-01T21:51:39.889Z,75.45
2023-02-01T21:54:13.636Z,75.36
2023-02-01T21:56:46.925Z,75.45
2023-02-01T21:59:20.438Z,75.31
2023-02-01T22:01:53.200Z,75.68
2023-02-01T22:04:26.176Z,75.46
2023-02-01T22:06:59.163Z,75.76
2023-02-01T22:09:32.117Z,75.34
2023-02-01T22:12:05.154Z,75.82
2023-02-01T22:14:38.281Z,75.52
2023-02-01T22:17:11.591Z,75.72
2023-02-01T22:19:44.349Z,75.49
2023-02-01T22:22:17.142Z,75.58
2023-02-01T22:24:49.567Z,75.60
2023-02-01T22:27:22.221Z,75.69
2023-02-01T22:30:16.239Z,75.85
2023-02-01T22:32:48.705Z,75.87
2023-02-01T22:35:21.849Z,75.65
2023-02-01T22:37:55.008Z,75.88
2023-02-01T22:40:27.660Z,76.00
2023-02-01T22:43:00.084Z,75.98
2023-02-01T22:45:32.918Z,75.87
2023-02-01T22:48:05.521Z,75.96
2023-02-01T22:50:37.990Z,75.77
2023-02-01T22:53:10.588Z,76.07
2023-02-01T22:55:45.516Z,75.83
2023-02-01T22:58:17.789Z,75.71
2023-02-01T23:00:50.174Z,76.05
2023-02-01T23:03:22.749Z,76.01
2023-02-01T23:06:00.824Z,75.71
2023-02-01T23:08:35.459Z,75.96
2023-02-01T23:11:10.489Z,76.08
2023-02-01T23:13:41.618Z,76.25
2023-02-01T23:16:15.601Z,75.88
2023-02-01T23:18:48.656Z,75.95
2023-02-01T23:21:23.190Z,76.09
2023-02-01T23:23:57.748Z,75.86
2023-02-01T23:26:32.834Z,76.18
2023-02-01T23:29:04.236Z,76.14
2023-02-01T23:31:37.662Z,76.07
2023-02-01T23:34:11.743Z,76.05
2023-02-01T23:36:44.348Z,76.02
2023-02-01T23:39:16.816Z,76.24
2023-02-01T23:41:49.312Z,76.19
2023-02-01T23:44:22.278Z,75.96
2023-02-01T23:46:54.806Z,76.12
2023-02-01T23:49:27.406Z,76.12
2023-02-01T23:51:59.854Z,76.15
2023-02-01T23:54:32.408Z,76.17
2023-02-01T23:57:04.913Z,76.16
2023-02-01T23:59:37.461Z,76.16
